createdAt,value
2018-05-26T00:02:14.790Z,12.78
2018-05-26T00:04:41.050Z,12.72
2018-05-26T00:07:07.525Z,12.74
2018-05-26T00:09:33.922Z,12.71
2018-05-26T00:12:00.141Z,12.64
2018-05-26T00:14:26.789Z,12.67
2018-05-26T00:16:53.211Z,12.65
2018-05-26T00:19:19.449Z,12.63
2018-05-26T00:21:45.970Z,12.59
2018-05-26T00:24:12.685Z,12.55
2018-05-26T00:26:38.904Z,12.57
2018-05-26T00:29:05.551Z,12.54
2018-05-26T00:31:32.079Z,12.50
2018-05-26T00:33:58.298Z,12.48
2018-05-26T00:36:24.948Z,12.46
2018-05-26T00:38:51.860Z,12.44
2018-05-26T00:41:18.060Z,12.43
2018-05-26T00:43:44.498Z,12.42
2018-05-26T00:46:11.133Z,12.41
2018-05-26T00:48:37.350Z,12.39
2018-05-26T00:51:03.899Z,12.38
2018-05-26T00:53:30.316Z,12.35
2018-05-26T00:55:56.502Z,12.34
2018-05-26T00:58:22.870Z,12.34
2018-05-26T01:00:49.939Z,12.33
2018-05-26T01:03:16.199Z,12.31
2018-05-26T01:05:42.701Z,12.30
2018-05-26T01:08:09.560Z,12.29
2018-05-26T01:10:38.591Z,12.29
2018-05-26T01:13:05.263Z,12.27
2018-05-26T01:15:31.860Z,12.26
2018-05-26T01:17:58.067Z,12.24
2018-05-26T01:20:25.517Z,12.23
2018-05-26T01:22:52.191Z,12.23
2018-05-26T01:25:18.381Z,12.22
2018-05-26T01:27:44.770Z,12.15
2018-05-26T01:30:11.467Z,12.21
2018-05-26T01:32:37.659Z,12.20
2018-05-26T01:35:04.059Z,12.19
2018-05-26T01:37:30.704Z,12.19
2018-05-26T01:39:56.932Z,12.18
2018-05-26T01:42:23.543Z,12.17
2018-05-26T01:44:49.988Z,12.16
2018-05-26T01:47:16.230Z,12.14
2018-05-26T01:49:42.826Z,12.14
2018-05-26T01:52:09.336Z,12.13
2018-05-26T01:54:35.585Z,12.12
2018-05-26T01:57:02.044Z,12.11
2018-05-26T01:59:28.986Z,12.09
2018-05-26T02:01:55.190Z,12.02
2018-05-26T02:04:21.749Z,12.03
2018-05-26T02:06:48.518Z,12.03
2018-05-26T02:09:14.690Z,12.01
2018-05-26T02:11:41.090Z,12.01
2018-05-26T02:14:07.708Z,12.02
2018-05-26T02:16:33.914Z,12.06
2018-05-26T02:19:00.370Z,12.01
2018-05-26T02:21:27.009Z,12.08
2018-05-26T02:23:53.183Z,12.09
2018-05-26T02:26:19.505Z,12.10
2018-05-26T02:28:46.248Z,12.10
2018-05-26T02:31:12.476Z,12.11
2018-05-26T02:33:38.944Z,12.13
2018-05-26T02:36:05.499Z,12.13
2018-05-26T02:38:31.706Z,12.14
2018-05-26T02:40:58.268Z,12.17
2018-05-26T02:43:24.879Z,12.19
2018-05-26T02:45:51.082Z,12.20
2018-05-26T02:48:17.727Z,12.21
2018-05-26T02:50:44.294Z,12.22
2018-05-26T02:53:10.567Z,12.24
2018-05-26T02:55:37.183Z,12.23
2018-05-26T02:58:03.648Z,12.24
2018-05-26T03:00:29.953Z,12.24
2018-05-26T03:02:56.476Z,12.24
2018-05-26T03:05:28.644Z,12.26
2018-05-26T03:08:01.553Z,12.27
2018-05-26T03:10:33.759Z,12.29
2018-05-26T03:13:06.696Z,12.31
2018-05-26T03:15:33.126Z,12.34
2018-05-26T03:18:10.841Z,12.36
2018-05-26T03:20:37.744Z,12.39
2018-05-26T03:23:04.011Z,12.33
2018-05-26T03:25:30.491Z,12.43
2018-05-26T03:27:57.134Z,12.46
2018-05-26T03:30:23.375Z,12.49
2018-05-26T03:32:49.788Z,12.54
2018-05-26T03:35:16.455Z,12.57
2018-05-26T03:37:42.637Z,12.61
2018-05-26T03:40:09.292Z,12.65
2018-05-26T03:42:36.023Z,12.70
2018-05-26T03:45:02.222Z,12.73
2018-05-26T03:47:28.754Z,12.78
2018-05-26T03:49:55.319Z,12.83
2018-05-26T03:52:21.494Z,12.88
2018-05-26T03:58:16.866Z,12.96
2018-05-26T04:00:44.123Z,12.98
2018-05-26T04:03:10.376Z,13.02
2018-05-26T04:05:36.637Z,13.06
2018-05-26T04:08:03.446Z,13.11
2018-05-26T04:10:29.625Z,13.12
2018-05-26T04:12:55.876Z,13.17
2018-05-26T04:15:23.193Z,13.23
2018-05-26T04:17:49.439Z,13.29
2018-05-26T04:20:15.729Z,13.36
2018-05-26T04:22:42.520Z,13.41
2018-05-26T04:25:08.697Z,13.48
2018-05-26T04:27:34.902Z,13.53
2018-05-26T04:30:01.620Z,13.62
2018-05-26T04:32:27.801Z,13.70
2018-05-26T04:34:54.031Z,13.81
2018-05-26T04:37:21.160Z,13.91
2018-05-26T04:39:47.405Z,14.00
2018-05-26T04:42:13.656Z,14.10
2018-05-26T04:44:40.288Z,14.20
2018-05-26T04:47:06.520Z,14.29
2018-05-26T04:49:32.743Z,14.40
2018-05-26T04:51:59.930Z,14.49
2018-05-26T04:54:26.192Z,14.59
2018-05-26T04:56:52.434Z,14.69
2018-05-26T04:59:19.755Z,14.79
2018-05-26T05:01:45.957Z,14.85
2018-05-26T05:04:12.184Z,14.97
2018-05-26T05:06:38.820Z,15.06
2018-05-26T05:09:05.082Z,15.15
2018-05-26T05:11:31.350Z,15.22
2018-05-26T05:13:58.124Z,15.33
2018-05-26T05:16:24.334Z,15.41
2018-05-26T05:18:50.606Z,15.48
2018-05-26T05:21:17.465Z,15.52
2018-05-26T05:23:43.937Z,15.60
2018-05-26T05:26:10.180Z,15.66
2018-05-26T05:28:36.794Z,15.67
2018-05-26T05:31:03.269Z,15.75
2018-05-26T05:33:29.446Z,15.80
2018-05-26T05:35:56.040Z,15.86
2018-05-26T05:38:22.560Z,15.91
2018-05-26T05:40:48.764Z,15.97
2018-05-26T05:43:15.668Z,16.03
2018-05-26T05:45:42.168Z,16.10
2018-05-26T05:48:08.395Z,16.17
2018-05-26T05:50:34.919Z,16.21
2018-05-26T05:53:01.404Z,16.27
2018-05-26T05:55:27.634Z,16.35
2018-05-26T05:57:54.166Z,16.41
2018-05-26T06:00:20.946Z,16.46
2018-05-26T06:02:47.181Z,16.51
2018-05-26T06:05:13.925Z,16.55
2018-05-26T06:07:40.196Z,16.60
2018-05-26T06:10:06.407Z,16.65
2018-05-26T06:12:33.021Z,16.71
2018-05-26T06:14:59.515Z,16.75
2018-05-26T06:17:25.780Z,16.81
2018-05-26T06:19:52.650Z,16.87
2018-05-26T06:22:19.128Z,16.92
2018-05-26T06:24:45.340Z,16.98
2018-05-26T06:27:11.860Z,17.02
2018-05-26T06:29:38.357Z,17.06
2018-05-26T06:32:04.572Z,17.09
2018-05-26T06:34:31.411Z,17.09
2018-05-26T06:36:57.853Z,17.14
2018-05-26T06:39:24.062Z,17.19
2018-05-26T06:41:50.755Z,17.22
2018-05-26T06:44:17.207Z,17.24
2018-05-26T06:46:43.402Z,17.27
2018-05-26T06:49:10.254Z,17.31
2018-05-26T06:51:36.636Z,17.33
2018-05-26T06:54:02.880Z,17.34
2018-05-26T06:56:29.934Z,17.40
2018-05-26T06:58:56.258Z,17.44
2018-05-26T07:01:22.469Z,17.48
2018-05-26T07:03:48.948Z,17.52
2018-05-26T07:06:15.343Z,17.56
2018-05-26T07:08:41.574Z,17.60
2018-05-26T07:11:08.093Z,17.64
2018-05-26T07:13:34.465Z,17.68
2018-05-26T07:16:00.659Z,17.71
2018-05-26T07:18:27.215Z,17.75
2018-05-26T07:20:53.598Z,17.76
2018-05-26T07:23:19.672Z,17.82
2018-05-26T07:25:46.373Z,17.87
2018-05-26T07:28:12.577Z,17.91
2018-05-26T07:30:38.803Z,17.98
2018-05-26T07:33:05.456Z,18.03
2018-05-26T07:35:31.810Z,18.08
2018-05-26T07:37:58.099Z,18.10
2018-05-26T07:40:24.543Z,18.16
2018-05-26T07:42:50.811Z,18.20
2018-05-26T07:45:17.050Z,18.23
2018-05-26T07:47:43.422Z,18.27
2018-05-26T07:50:09.649Z,18.32
2018-05-26T07:52:35.925Z,18.36
2018-05-26T07:55:02.283Z,18.36
2018-05-26T07:57:28.685Z,18.41
2018-05-26T07:59:54.918Z,18.43
2018-05-26T08:02:21.535Z,18.48
2018-05-26T08:04:47.715Z,18.47
2018-05-26T08:07:13.794Z,18.56
2018-05-26T08:09:40.642Z,18.60
2018-05-26T08:12:07.008Z,18.65
2018-05-26T08:14:33.274Z,18.71
2018-05-26T08:16:59.872Z,18.74
2018-05-26T08:19:26.202Z,18.78
2018-05-26T08:21:52.304Z,18.81
2018-05-26T08:24:18.659Z,18.85
2018-05-26T08:26:44.961Z,18.90
2018-05-26T08:29:11.066Z,18.95
2018-05-26T08:31:37.464Z,18.99
2018-05-26T08:34:03.790Z,19.03
2018-05-26T08:36:29.867Z,19.06
2018-05-26T08:38:56.722Z,19.14
2018-05-26T08:41:23.323Z,19.17
2018-05-26T08:43:49.410Z,19.25
2018-05-26T08:46:16.024Z,19.31
2018-05-26T08:48:42.413Z,19.37
2018-05-26T08:51:08.505Z,19.45
2018-05-26T08:53:34.798Z,19.51
2018-05-26T08:56:00.946Z,19.55
2018-05-26T08:58:27.184Z,19.62
2018-05-26T09:00:54.026Z,19.67
2018-05-26T09:03:20.400Z,19.73
2018-05-26T09:05:46.563Z,19.77
2018-05-26T09:08:13.682Z,19.81
2018-05-26T09:10:40.044Z,19.89
2018-05-26T09:13:06.283Z,19.97
2018-05-26T09:15:32.943Z,20.04
2018-05-26T09:17:59.469Z,20.12
2018-05-26T09:20:25.712Z,20.21
2018-05-26T09:22:52.122Z,20.29
2018-05-26T09:25:18.609Z,20.46
2018-05-26T09:27:44.830Z,20.55
2018-05-26T09:30:11.471Z,20.65
2018-05-26T09:32:38.090Z,20.71
2018-05-26T09:35:04.359Z,20.78
2018-05-26T09:37:31.115Z,20.86
2018-05-26T09:39:57.608Z,20.91
2018-05-26T09:42:23.890Z,21.11
2018-05-26T09:44:51.007Z,21.61
2018-05-26T09:47:17.245Z,22.10
2018-05-26T09:49:43.360Z,22.49
2018-05-26T09:52:09.904Z,22.84
2018-05-26T09:54:36.672Z,23.16
2018-05-26T09:57:02.785Z,23.44
2018-05-26T09:59:29.067Z,23.65
2018-05-26T10:01:55.223Z,23.91
2018-05-26T10:04:21.330Z,23.98
2018-05-26T10:06:47.743Z,24.30
2018-05-26T10:09:13.970Z,24.52
2018-05-26T10:11:40.112Z,24.66
2018-05-26T10:14:06.886Z,24.73
2018-05-26T10:16:33.859Z,24.82
2018-05-26T10:18:59.923Z,24.94
2018-05-26T10:21:26.371Z,25.10
2018-05-26T10:23:52.508Z,25.25
2018-05-26T10:26:18.640Z,25.38
2018-05-26T10:28:44.974Z,25.43
2018-05-26T10:31:11.185Z,25.48
2018-05-26T10:33:37.287Z,25.54
2018-05-26T10:36:03.822Z,25.62
2018-05-26T10:38:30.238Z,25.69
2018-05-26T10:40:56.307Z,25.73
2018-05-26T10:43:22.993Z,25.81
2018-05-26T10:45:55.127Z,25.85
2018-05-26T10:48:21.261Z,25.93
2018-05-26T10:50:47.656Z,25.95
2018-05-26T10:53:13.711Z,25.89
2018-05-26T10:55:39.817Z,25.83
2018-05-26T10:58:06.082Z,25.77
2018-05-26T11:00:32.138Z,25.78
2018-05-26T11:02:58.381Z,25.69
2018-05-26T11:05:24.719Z,25.53
2018-05-26T11:07:50.740Z,25.45
2018-05-26T11:10:16.979Z,25.46
2018-05-26T11:12:43.840Z,25.45
2018-05-26T11:15:10.051Z,25.36
2018-05-26T11:17:36.565Z,25.33
2018-05-26T11:20:03.034Z,25.36
2018-05-26T11:22:29.233Z,25.37
2018-05-26T11:24:55.642Z,25.34
2018-05-26T11:27:22.244Z,25.31
2018-05-26T11:29:48.460Z,25.34
2018-05-26T11:32:14.750Z,25.35
2018-05-26T11:34:41.700Z,25.34
2018-05-26T11:37:07.851Z,25.31
2018-05-26T11:39:34.188Z,25.27
2018-05-26T11:42:00.738Z,25.22
2018-05-26T11:44:26.915Z,25.13
2018-05-26T11:46:53.228Z,25.12
2018-05-26T11:49:19.730Z,25.09
2018-05-26T11:51:45.882Z,25.08
2018-05-26T11:54:12.184Z,25.04
2018-05-26T11:56:38.829Z,24.94
2018-05-26T11:59:05.052Z,24.87
2018-05-26T12:01:31.523Z,24.80
2018-05-26T12:03:58.507Z,24.79
2018-05-26T12:06:24.669Z,24.79
2018-05-26T12:08:50.967Z,24.74
2018-05-26T12:11:17.597Z,24.74
2018-05-26T12:13:43.767Z,24.73
2018-05-26T12:16:10.111Z,24.76
2018-05-26T12:18:37.056Z,24.73
2018-05-26T12:21:03.267Z,24.67
2018-05-26T12:23:29.589Z,24.69
2018-05-26T12:25:56.021Z,24.73
2018-05-26T12:28:22.173Z,24.71
2018-05-26T12:30:48.289Z,24.64
2018-05-26T12:33:14.809Z,24.65
2018-05-26T12:35:40.979Z,24.61
2018-05-26T12:38:07.099Z,24.59
2018-05-26T12:40:33.634Z,24.52
2018-05-26T12:42:59.794Z,24.50
2018-05-26T12:45:26.188Z,24.47
2018-05-26T12:47:52.759Z,24.43
2018-05-26T12:50:18.782Z,24.38
2018-05-26T12:52:45.089Z,24.30
2018-05-26T12:55:11.611Z,24.20
2018-05-26T12:57:37.652Z,24.12
2018-05-26T13:00:03.775Z,24.05
2018-05-26T13:02:30.095Z,23.93
2018-05-26T13:04:56.249Z,23.80
2018-05-26T13:07:22.588Z,23.72
2018-05-26T13:09:49.142Z,23.63
2018-05-26T13:12:15.311Z,23.60
2018-05-26T13:14:41.663Z,23.57
2018-05-26T13:17:08.170Z,23.50
2018-05-26T13:19:34.209Z,23.37
2018-05-26T13:22:00.607Z,23.20
2018-05-26T13:24:27.027Z,23.01
2018-05-26T13:26:53.219Z,22.90
2018-05-26T13:29:19.380Z,22.83
2018-05-26T13:31:46.185Z,22.71
2018-05-26T13:34:12.349Z,22.59
2018-05-26T13:36:38.711Z,22.49
2018-05-26T13:39:05.229Z,22.42
2018-05-26T13:41:31.456Z,22.32
2018-05-26T13:43:57.977Z,22.19
2018-05-26T13:46:24.697Z,22.08
2018-05-26T13:48:50.911Z,22.00
2018-05-26T13:51:17.506Z,21.93
2018-05-26T13:53:44.054Z,21.94
2018-05-26T13:56:10.280Z,21.92
2018-05-26T13:58:36.661Z,21.83
2018-05-26T14:01:03.497Z,21.73
2018-05-26T14:03:29.743Z,21.60
2018-05-26T14:05:56.168Z,21.47
2018-05-26T14:08:23.000Z,21.32
2018-05-26T14:10:49.236Z,21.24
2018-05-26T14:13:15.569Z,21.12
2018-05-26T14:15:42.118Z,21.07
2018-05-26T14:18:08.377Z,21.03
2018-05-26T14:20:34.807Z,20.95
2018-05-26T14:23:01.321Z,20.81
2018-05-26T14:25:27.581Z,20.80
2018-05-26T14:27:54.143Z,20.71
2018-05-26T14:30:20.634Z,20.63
2018-05-26T14:32:46.914Z,20.55
2018-05-26T14:35:13.427Z,20.45
2018-05-26T14:37:40.205Z,20.40
2018-05-26T14:40:06.442Z,20.30
2018-05-26T14:42:32.820Z,20.24
2018-05-26T14:44:59.732Z,20.15
2018-05-26T14:47:25.947Z,20.09
2018-05-26T14:49:52.282Z,20.04
2018-05-26T14:52:18.671Z,19.98
2018-05-26T14:54:44.906Z,19.94
2018-05-26T14:57:11.268Z,19.88
2018-05-26T14:59:38.095Z,19.83
2018-05-26T15:02:04.278Z,19.85
2018-05-26T15:04:30.633Z,19.85
2018-05-26T15:06:57.255Z,19.81
2018-05-26T15:09:23.466Z,19.79
2018-05-26T15:11:49.909Z,19.74
2018-05-26T15:14:16.574Z,19.70
2018-05-26T15:16:42.765Z,19.69
2018-05-26T15:19:09.176Z,19.63
2018-05-26T15:21:36.071Z,19.54
2018-05-26T15:24:02.280Z,19.50
2018-05-26T15:26:28.681Z,19.49
2018-05-26T15:28:55.442Z,19.49
2018-05-26T15:31:21.712Z,19.46
2018-05-26T15:33:48.233Z,19.43
2018-05-26T15:36:14.735Z,19.41
2018-05-26T15:38:41.013Z,19.39
2018-05-26T15:41:07.355Z,19.39
2018-05-26T15:43:34.004Z,19.38
2018-05-26T15:46:00.215Z,19.33
2018-05-26T15:48:26.643Z,19.36
2018-05-26T15:50:53.198Z,19.30
2018-05-26T15:53:19.430Z,19.30
2018-05-26T15:55:45.882Z,19.27
2018-05-26T15:58:12.616Z,19.28
2018-05-26T16:00:38.836Z,19.29
2018-05-26T16:03:05.130Z,19.38
2018-05-26T16:05:31.998Z,19.54
2018-05-26T16:07:58.247Z,19.60
2018-05-26T16:10:24.696Z,19.61
2018-05-26T16:12:51.285Z,19.65
2018-05-26T16:15:17.531Z,19.64
2018-05-26T16:17:43.862Z,19.64
2018-05-26T16:20:10.462Z,19.66
2018-05-26T16:22:36.684Z,19.63
2018-05-26T16:25:03.186Z,19.63
2018-05-26T16:27:30.053Z,19.60
2018-05-26T16:29:56.287Z,19.57
2018-05-26T16:32:22.723Z,19.53
2018-05-26T16:34:49.103Z,19.50
2018-05-26T16:37:15.312Z,19.51
2018-05-26T16:39:41.636Z,19.53
2018-05-26T16:42:08.506Z,19.57
2018-05-26T16:44:34.745Z,19.56
2018-05-26T16:47:01.299Z,19.60
2018-05-26T16:49:28.133Z,19.62
2018-05-26T16:51:54.372Z,19.62
2018-05-26T16:54:20.813Z,19.58
2018-05-26T16:56:47.368Z,19.54
2018-05-26T17:02:06.088Z,19.49
2018-05-26T17:04:32.368Z,19.50
2018-05-26T17:06:58.584Z,19.43
2018-05-26T17:09:25.362Z,19.51
2018-05-26T17:11:51.684Z,19.54
2018-05-26T17:14:17.908Z,19.53
2018-05-26T17:16:44.614Z,19.54
2018-05-26T17:19:10.981Z,19.54
2018-05-26T17:21:37.193Z,19.52
2018-05-26T17:24:03.705Z,19.51
2018-05-26T17:26:30.277Z,19.57
2018-05-26T17:28:56.506Z,19.55
2018-05-26T17:31:23.076Z,19.54
2018-05-26T17:33:49.434Z,19.58
2018-05-26T17:36:15.633Z,19.57
2018-05-26T17:38:42.149Z,19.57
2018-05-26T17:41:08.649Z,19.56
2018-05-26T17:43:34.853Z,19.55
2018-05-26T17:46:01.411Z,19.56
2018-05-26T17:48:27.993Z,19.52
2018-05-26T17:50:54.194Z,19.53
2018-05-26T17:53:20.639Z,19.47
2018-05-26T17:55:46.967Z,19.44
2018-05-26T17:58:13.165Z,19.42
2018-05-26T18:00:39.599Z,19.42
2018-05-26T18:03:05.911Z,19.40
2018-05-26T18:05:32.186Z,19.35
2018-05-26T18:07:58.987Z,19.31
2018-05-26T18:10:25.401Z,19.26
2018-05-26T18:12:51.689Z,19.24
2018-05-26T18:15:18.196Z,19.25
2018-05-26T18:17:44.714Z,19.24
2018-05-26T18:20:10.934Z,19.22
2018-05-26T18:22:37.508Z,19.21
2018-05-26T18:25:03.848Z,19.20
2018-05-26T18:27:30.109Z,19.20
2018-05-26T18:29:56.832Z,19.21
2018-05-26T18:32:23.141Z,19.20
2018-05-26T18:34:49.385Z,19.19
2018-05-26T18:37:15.898Z,19.17
2018-05-26T18:39:42.372Z,19.12
2018-05-26T18:42:08.620Z,19.08
2018-05-26T18:44:35.505Z,19.05
2018-05-26T18:47:01.993Z,19.05
2018-05-26T18:49:28.262Z,19.03
2018-05-26T18:51:55.182Z,19.00
2018-05-26T18:54:21.521Z,18.97
2018-05-26T18:56:47.743Z,18.92
2018-05-26T18:59:14.323Z,18.88
2018-05-26T19:01:40.800Z,18.85
2018-05-26T19:04:07.025Z,18.82
2018-05-26T19:06:34.061Z,18.79
2018-05-26T19:09:00.470Z,18.75
2018-05-26T19:11:26.681Z,18.68
2018-05-26T19:13:53.199Z,18.65
2018-05-26T19:16:19.542Z,18.61
2018-05-26T19:18:45.741Z,18.56
2018-05-26T19:21:12.341Z,18.52
2018-05-26T19:23:38.765Z,18.49
2018-05-26T19:26:04.965Z,18.40
2018-05-26T19:28:31.665Z,18.38
2018-05-26T19:30:58.192Z,18.33
2018-05-26T19:33:24.401Z,18.27
2018-05-26T19:35:51.277Z,18.22
2018-05-26T19:38:17.644Z,18.16
2018-05-26T19:40:43.819Z,18.10
2018-05-26T19:43:10.367Z,18.06
2018-05-26T19:45:36.820Z,18.01
2018-05-26T19:48:03.048Z,17.95
2018-05-26T19:50:29.686Z,17.89
2018-05-26T19:52:56.030Z,17.83
2018-05-26T19:55:22.270Z,17.77
2018-05-26T19:57:49.164Z,17.72
2018-05-26T20:00:15.700Z,17.66
2018-05-26T20:02:41.933Z,17.60
2018-05-26T20:05:08.640Z,17.55
2018-05-26T20:07:35.196Z,17.50
2018-05-26T20:10:01.431Z,17.47
2018-05-26T20:12:28.355Z,17.39
2018-05-26T20:14:54.724Z,17.37
2018-05-26T20:17:20.940Z,17.33
2018-05-26T20:19:47.411Z,17.30
2018-05-26T20:22:13.851Z,17.25
2018-05-26T20:24:40.070Z,17.20
2018-05-26T20:27:06.556Z,17.20
2018-05-26T20:29:32.927Z,17.17
2018-05-26T20:31:59.195Z,17.14
2018-05-26T20:34:26.126Z,17.10
2018-05-26T20:36:52.490Z,17.07
2018-05-26T20:39:18.717Z,17.03
2018-05-26T20:41:45.101Z,17.01
2018-05-26T20:44:11.418Z,16.98
2018-05-26T20:46:37.700Z,16.96
2018-05-26T20:49:04.428Z,16.93
2018-05-26T20:51:30.797Z,16.90
2018-05-26T20:53:56.974Z,16.86
2018-05-26T20:56:23.843Z,16.80
2018-05-26T20:58:50.215Z,16.79
2018-05-26T21:01:16.396Z,16.76
2018-05-26T21:03:42.874Z,16.73
2018-05-26T21:06:09.235Z,16.71
2018-05-26T21:08:35.535Z,16.68
2018-05-26T21:11:02.349Z,16.65
2018-05-26T21:13:28.797Z,16.62
2018-05-26T21:15:55.015Z,16.56
2018-05-26T21:18:21.676Z,16.55
2018-05-26T21:20:48.076Z,16.48
2018-05-26T21:23:14.314Z,16.48
2018-05-26T21:25:40.931Z,16.44
2018-05-26T21:28:07.296Z,16.40
2018-05-26T21:30:33.526Z,16.35
2018-05-26T21:33:00.006Z,16.31
2018-05-26T21:35:26.356Z,16.22
2018-05-26T21:37:52.592Z,16.19
2018-05-26T21:40:19.225Z,16.14
2018-05-26T21:42:45.860Z,16.08
2018-05-26T21:45:12.064Z,16.02
2018-05-26T21:47:39.214Z,15.88
2018-05-26T21:50:05.618Z,15.85
2018-05-26T21:52:31.832Z,15.83
2018-05-26T21:54:58.356Z,15.77
2018-05-26T21:57:24.709Z,15.70
2018-05-26T21:59:50.932Z,15.62
2018-05-26T22:02:17.655Z,15.57
2018-05-26T22:04:44.183Z,15.54
2018-05-26T22:07:10.382Z,15.49
2018-05-26T22:09:37.081Z,15.46
2018-05-26T22:12:03.486Z,15.41
2018-05-26T22:14:29.744Z,15.37
2018-05-26T22:16:56.653Z,15.32
2018-05-26T22:19:23.030Z,15.27
2018-05-26T22:21:49.206Z,15.21
2018-05-26T22:24:16.090Z,15.21
2018-05-26T22:26:42.553Z,15.18
2018-05-26T22:29:08.734Z,15.16
2018-05-26T22:31:35.544Z,15.15
2018-05-26T22:34:02.079Z,15.13
2018-05-26T22:36:28.275Z,15.12
2018-05-26T22:38:54.735Z,15.10
2018-05-26T22:41:21.372Z,15.05
2018-05-26T22:43:47.578Z,15.02
2018-05-26T22:46:14.213Z,14.99
2018-05-26T22:48:40.591Z,14.95
2018-05-26T22:51:06.845Z,14.91
2018-05-26T22:53:33.356Z,14.87
2018-05-26T22:55:59.788Z,14.82
2018-05-26T22:58:26.060Z,14.76
2018-05-26T23:00:52.628Z,14.75
2018-05-26T23:03:19.028Z,14.73
2018-05-26T23:05:45.278Z,14.69
2018-05-26T23:08:11.960Z,14.64
2018-05-26T23:10:38.463Z,14.59
2018-05-26T23:13:04.666Z,14.54
2018-05-26T23:15:31.208Z,14.50
2018-05-26T23:17:57.457Z,14.44
2018-05-26T23:20:23.555Z,14.43
2018-05-26T23:22:50.079Z,14.39
2018-05-26T23:25:16.577Z,14.34
2018-05-26T23:27:42.805Z,14.31
2018-05-26T23:30:09.624Z,14.27
2018-05-26T23:32:36.086Z,14.24
2018-05-26T23:35:02.353Z,14.20
2018-05-26T23:37:28.940Z,14.17
2018-05-26T23:39:55.260Z,14.12
2018-05-26T23:42:21.503Z,14.08
2018-05-26T23:44:48.017Z,14.05
2018-05-26T23:47:14.372Z,14.01
2018-05-26T23:49:40.602Z,13.99
2018-05-26T23:52:07.365Z,13.95
2018-05-26T23:54:33.738Z,13.91
2018-05-26T23:56:59.986Z,13.86
2018-05-26T23:59:26.663Z,13.83
